createdAt,value
2023-10-23T00:05:00.661Z,11.10
2023-10-23T00:10:22.904Z,11.10
2023-10-23T00:15:44.627Z,10.90
2023-10-23T00:21:30.665Z,10.80
2023-10-23T00:27:21.212Z,10.70
2023-10-23T00:33:02.738Z,10.60
2023-10-23T00:38:41.933Z,10.60
2023-10-23T00:44:10.228Z,10.50
2023-10-23T00:49:33.690Z,10.50
2023-10-23T00:54:55.885Z,10.50
2023-10-23T01:00:17.839Z,10.50
2023-10-23T01:06:05.275Z,10.50
2023-10-23T01:11:29.276Z,10.50
2023-10-23T01:17:08.095Z,10.50
2023-10-23T01:22:54.895Z,10.50
2023-10-23T01:28:42.210Z,10.40
2023-10-23T01:34:19.356Z,10.30
2023-10-23T01:39:41.035Z,10.30
2023-10-23T01:45:02.614Z,10.20
2023-10-23T01:50:25.463Z,10.20
2023-10-23T01:55:46.792Z,10.10
2023-10-23T02:01:24.834Z,10.10
2023-10-23T02:06:57.627Z,10.20
2023-10-23T02:12:32.267Z,10.20
2023-10-23T02:18:09.377Z,10.20
2023-10-23T02:23:56.319Z,10.30
2023-10-23T02:29:25.207Z,10.30
2023-10-23T02:34:49.388Z,10.30
2023-10-23T02:40:11.561Z,10.40
2023-10-23T02:45:35.272Z,10.40
2023-10-23T02:51:25.735Z,10.40
2023-10-23T02:56:55.186Z,10.50
2023-10-23T03:02:23.175Z,10.50
2023-10-23T03:07:53.617Z,10.50
2023-10-23T03:13:30.136Z,10.50
2023-10-23T03:19:05.951Z,10.60
2023-10-23T03:24:28.263Z,10.60
2023-10-23T03:29:49.947Z,10.70
2023-10-23T03:35:11.594Z,10.70
2023-10-23T03:40:33.402Z,10.80
2023-10-23T03:52:16.494Z,10.80
2023-10-23T03:58:05.166Z,10.90
2023-10-23T04:03:46.302Z,10.90
2023-10-23T04:09:19.518Z,10.80
2023-10-23T04:14:41.464Z,10.90
2023-10-23T04:20:03.067Z,10.80
2023-10-23T04:25:24.731Z,10.80
2023-10-23T04:30:46.270Z,10.80
2023-10-23T04:36:34.508Z,10.80
2023-10-23T04:42:20.796Z,10.80
2023-10-23T04:47:52.341Z,10.70
2023-10-23T04:53:29.285Z,10.60
2023-10-23T04:58:59.081Z,10.60
2023-10-23T05:04:40.062Z,10.60
2023-10-23T05:10:09.016Z,10.50
2023-10-23T05:15:33.879Z,10.40
2023-10-23T05:21:03.980Z,10.50
2023-10-23T05:26:31.253Z,10.40
2023-10-23T05:32:19.932Z,10.40
2023-10-23T05:37:58.528Z,10.40
2023-10-23T05:43:35.524Z,10.30
2023-10-23T05:49:06.428Z,10.30
2023-10-23T05:54:28.907Z,10.10
2023-10-23T05:59:50.311Z,10.00
2023-10-23T06:05:28.101Z,9.90
2023-10-23T06:11:24.136Z,9.80
2023-10-23T06:17:22.496Z,9.60
2023-10-23T06:23:05.040Z,9.50
2023-10-23T06:28:31.570Z,9.40
2023-10-23T06:34:04.359Z,9.30
2023-10-23T06:39:28.018Z,9.20
2023-10-23T06:44:50.363Z,9.10
2023-10-23T06:50:14.905Z,9.10
2023-10-23T06:55:36.571Z,9.00
2023-10-23T07:00:58.261Z,9.00
2023-10-23T07:06:48.026Z,9.00
2023-10-23T07:12:11.045Z,9.10
2023-10-23T07:17:58.813Z,9.20
2023-10-23T07:23:28.614Z,9.40
2023-10-23T07:28:58.548Z,9.60
2023-10-23T07:34:24.488Z,10.00
2023-10-23T07:39:49.262Z,10.40
2023-10-23T07:45:11.199Z,10.70
2023-10-23T07:50:36.526Z,11.10
2023-10-23T08:02:09.774Z,11.70
2023-10-23T08:07:36.230Z,12.00
2023-10-23T08:13:07.502Z,12.30
2023-10-23T08:18:53.502Z,12.50
2023-10-23T08:24:19.312Z,12.70
2023-10-23T08:29:41.194Z,13.00
2023-10-23T08:35:04.258Z,13.20
2023-10-23T08:40:26.182Z,13.40
2023-10-23T08:46:02.000Z,13.50
2023-10-23T08:51:30.389Z,13.70
2023-10-23T08:57:23.120Z,13.90
2023-10-23T09:03:06.755Z,14.20
2023-10-23T09:08:33.456Z,14.40
2023-10-23T09:14:13.519Z,14.60
2023-10-23T09:19:41.464Z,14.80
2023-10-23T09:25:03.600Z,15.00
2023-10-23T09:30:30.212Z,15.30
2023-10-23T09:36:12.906Z,15.40
2023-10-23T09:42:01.374Z,15.40
2023-10-23T09:47:50.350Z,15.60
2023-10-23T09:53:33.727Z,15.80
2023-10-23T09:59:08.637Z,16.00
2023-10-23T10:05:03.968Z,16.20
2023-10-23T10:10:47.089Z,16.30
2023-10-23T10:16:35.495Z,16.50
2023-10-23T10:22:30.525Z,16.60
2023-10-23T10:28:15.924Z,16.70
2023-10-23T10:34:27.634Z,16.80
2023-10-23T10:39:45.272Z,16.80
2023-10-23T10:45:19.567Z,17.00
2023-10-23T10:50:42.457Z,17.10
2023-10-23T10:56:31.182Z,17.20
2023-10-23T11:02:14.401Z,17.30
2023-10-23T11:07:41.248Z,17.30
2023-10-23T11:13:27.906Z,17.50
2023-10-23T11:18:49.911Z,17.50
2023-10-23T11:24:17.365Z,17.70
2023-10-23T11:29:45.101Z,17.90
2023-10-23T11:35:08.109Z,17.90
2023-10-23T11:40:33.586Z,17.90
2023-10-23T11:46:13.453Z,18.00
2023-10-23T11:57:58.709Z,17.90
2023-10-23T12:03:43.889Z,18.00
2023-10-23T12:09:08.373Z,18.10
2023-10-23T12:14:32.071Z,18.20
2023-10-23T12:19:54.253Z,18.00
2023-10-23T12:25:17.621Z,18.20
2023-10-23T12:30:39.442Z,18.20
2023-10-23T12:42:19.692Z,18.10
2023-10-23T12:48:03.907Z,18.20
2023-10-23T12:53:30.215Z,18.10
2023-10-23T12:59:03.429Z,18.00
2023-10-23T13:04:49.519Z,18.10
2023-10-23T13:10:34.420Z,18.10
2023-10-23T13:16:05.933Z,18.10
2023-10-23T13:21:37.607Z,18.00
2023-10-23T13:27:18.823Z,18.10
2023-10-23T13:32:59.033Z,18.10
2023-10-23T13:38:33.440Z,17.90
2023-10-23T13:44:00.766Z,17.90
2023-10-23T13:49:23.004Z,17.80
2023-10-23T13:54:46.384Z,17.70
2023-10-23T14:00:11.053Z,17.60
2023-10-23T14:05:38.432Z,17.60
2023-10-23T14:17:16.645Z,17.40
2023-10-23T14:23:01.650Z,17.40
2023-10-23T14:28:29.374Z,17.40
2023-10-23T14:33:59.154Z,17.30
2023-10-23T14:39:27.305Z,17.00
2023-10-23T14:44:49.290Z,16.90
2023-10-23T14:50:10.864Z,16.80
2023-10-23T14:55:32.463Z,16.60
2023-10-23T15:00:54.131Z,16.30
2023-10-23T15:06:34.050Z,16.10
2023-10-23T15:12:23.413Z,15.90
2023-10-23T15:18:03.602Z,15.60
2023-10-23T15:23:42.724Z,15.40
2023-10-23T15:29:15.192Z,15.10
2023-10-23T15:34:37.106Z,14.90
2023-10-23T15:39:58.741Z,14.70
2023-10-23T15:45:20.310Z,14.50
2023-10-23T15:50:42.005Z,14.20
2023-10-23T15:56:30.851Z,14.10
2023-10-23T16:02:09.066Z,13.90
2023-10-23T16:07:45.495Z,13.70
2023-10-23T16:13:42.110Z,13.50
2023-10-23T16:19:29.594Z,13.30
2023-10-23T16:24:51.861Z,13.10
2023-10-23T16:30:13.949Z,12.90
2023-10-23T16:35:36.590Z,12.80
2023-10-23T16:41:27.814Z,12.60
2023-10-23T16:47:12.467Z,12.40
2023-10-23T16:52:58.156Z,12.30
2023-10-23T16:58:36.021Z,12.10
2023-10-23T17:04:26.882Z,12.10
2023-10-23T17:09:54.174Z,11.90
2023-10-23T17:15:16.309Z,11.80
2023-10-23T17:20:42.301Z,11.60
2023-10-23T17:26:30.832Z,11.60
2023-10-23T17:32:22.533Z,11.40
2023-10-23T17:38:06.513Z,11.40
2023-10-23T17:43:43.053Z,11.20
2023-10-23T17:49:15.215Z,11.10
2023-10-23T17:54:41.461Z,11.10
2023-10-23T18:00:03.825Z,10.90
2023-10-23T18:05:44.447Z,10.80
2023-10-23T18:11:32.756Z,10.70
2023-10-23T18:17:18.886Z,10.70
2023-10-23T18:23:05.473Z,10.60
2023-10-23T18:28:42.945Z,10.40
2023-10-23T18:34:10.139Z,10.30
2023-10-23T18:39:33.486Z,10.20
2023-10-23T18:44:54.965Z,10.20
2023-10-23T18:50:16.896Z,10.10
2023-10-23T18:55:38.615Z,10.00
2023-10-23T19:01:00.172Z,9.90
2023-10-23T19:06:47.509Z,9.90
2023-10-23T19:12:11.162Z,9.90
2023-10-23T19:17:55.642Z,9.80
2023-10-23T19:23:33.829Z,9.80
2023-10-23T19:29:03.686Z,9.80
2023-10-23T19:34:31.960Z,9.70
2023-10-23T19:39:53.873Z,9.70
2023-10-23T19:45:15.799Z,9.80
2023-10-23T19:50:44.474Z,9.90
2023-10-23T19:56:32.612Z,10.10
2023-10-23T20:02:27.432Z,10.20
2023-10-23T20:07:52.917Z,10.30
2023-10-23T20:13:29.808Z,10.40
2023-10-23T20:19:02.197Z,10.50
2023-10-23T20:24:25.235Z,10.50
2023-10-23T20:29:46.469Z,10.70
2023-10-23T20:35:08.624Z,10.80
2023-10-23T20:40:29.942Z,10.90
2023-10-23T20:46:06.491Z,11.00
2023-10-23T20:51:55.305Z,11.10
2023-10-23T20:57:36.461Z,11.10
2023-10-23T21:03:25.904Z,11.10
2023-10-23T21:08:56.390Z,11.20
2023-10-23T21:14:17.826Z,11.30
2023-10-23T21:19:39.739Z,11.40
2023-10-23T21:25:01.665Z,11.50
2023-10-23T21:30:23.616Z,11.60
2023-10-23T21:35:44.906Z,11.60
2023-10-23T21:41:34.282Z,11.70
2023-10-23T21:47:18.160Z,11.70
2023-10-23T21:53:03.627Z,11.80
2023-10-23T21:59:07.854Z,11.80
2023-10-23T22:04:45.578Z,11.90
2023-10-23T22:16:30.415Z,11.90
2023-10-23T22:22:05.746Z,11.70
2023-10-23T22:27:47.758Z,11.80
2023-10-23T22:33:21.247Z,11.70
2023-10-23T22:38:53.558Z,11.80
2023-10-23T22:44:17.766Z,11.70
2023-10-23T22:49:40.433Z,11.70
2023-10-23T22:55:05.484Z,11.60
2023-10-23T23:00:27.377Z,11.60
2023-10-23T23:06:12.793Z,11.60
2023-10-23T23:11:43.283Z,11.60
2023-10-23T23:17:41.517Z,11.60
2023-10-23T23:23:19.802Z,11.60
2023-10-23T23:29:00.801Z,11.60
2023-10-23T23:34:24.032Z,11.60
2023-10-23T23:39:45.665Z,11.50
2023-10-23T23:45:07.609Z,11.50
2023-10-23T23:50:32.417Z,11.60
2023-10-23T23:56:06.800Z,11.50
